Time;durP1;ratioP1;P1;durP2;ratioP2;P2;SDS_P1;SDS_P2;PMS_P1;PMS_P2;Temp;Humidity;BMP_temperature;BMP_pressure;BME280_temperature;BME280_humidity;BME280_pressure;Samples;Min_cycle;Max_cycle;Signal;HPM_P1;HPM_P2
2022/07/14 00:01:43;;;;;;;;;11.00;8.67;;;;;29.83;31.27;101560.59;5069139;27;45430;-84
2022/07/14 00:04:08;;;;;;;;;7.33;6.00;;;;;29.82;31.44;101558.00;5075910;27;46632;-84
2022/07/14 00:06:34;;;;;;;;;9.67;9.67;;;;;29.79;31.38;101556.47;5075315;28;45944;-85
2022/07/14 00:09:00;;;;;;;;;10.00;9.33;;;;;29.78;31.07;101553.88;5073129;27;45476;-85
2022/07/14 00:11:26;;;;;;;;;5.67;5.33;;;;;29.76;31.23;101544.94;5066382;27;45333;-85
2022/07/14 00:13:53;;;;;;;;;8.33;8.33;;;;;29.71;31.43;101525.38;5069562;27;46973;-85
2022/07/14 00:16:18;;;;;;;;;4.00;4.00;;;;;29.68;31.79;101523.84;5066461;28;45484;-85
2022/07/14 00:18:43;;;;;;;;;6.33;6.33;;;;;29.74;31.43;101525.06;5061827;28;45735;-85
2022/07/14 00:21:10;;;;;;;;;3.33;3.33;;;;;29.56;31.56;101492.25;5075087;28;45496;-85
2022/07/14 00:23:36;;;;;;;;;4.67;4.67;;;;;29.75;31.25;101515.78;5059936;28;46516;-84
2022/07/14 00:26:03;;;;;;;;;6.00;6.00;;;;;29.63;31.61;101494.09;5075933;27;45569;-85
2022/07/14 00:28:28;;;;;;;;;4.33;4.33;;;;;29.53;31.59;101479.72;5075359;28;45467;-85
2022/07/14 00:30:54;;;;;;;;;8.67;7.33;;;;;29.68;31.56;101507.34;5071209;27;45523;-85
2022/07/14 00:33:20;;;;;;;;;10.67;8.33;;;;;29.62;31.74;101500.66;5096353;27;45526;-85
2022/07/14 00:35:45;;;;;;;;;7.00;7.00;;;;;29.64;31.82;101508.69;5067183;27;47045;-85
2022/07/14 00:38:11;;;;;;;;;8.33;6.33;;;;;29.63;31.92;101512.50;5074964;27;45575;-84
2022/07/14 00:40:36;;;;;;;;;10.00;8.00;;;;;29.61;32.08;101509.91;5078051;27;45460;-84
2022/07/14 00:43:02;;;;;;;;;10.33;8.67;;;;;29.59;31.69;101514.72;5079658;27;45501;-84
2022/07/14 00:45:27;;;;;;;;;11.67;9.00;;;;;29.54;32.03;101511.63;5075348;27;45660;-84
2022/07/14 00:47:52;;;;;;;;;10.33;10.33;;;;;29.36;32.24;101487.13;5076133;27;45505;-84
2022/07/14 00:50:19;;;;;;;;;8.67;6.67;;;;;29.43;32.13;101507.38;5077973;27;45514;-83
2022/07/14 00:52:47;;;;;;;;;9.67;9.00;;;;;29.51;31.93;101533.97;5077659;28;46694;-83
2022/07/14 00:55:14;;;;;;;;;9.67;8.00;;;;;29.36;32.09;101516.44;5075785;28;45415;-83
2022/07/14 00:57:39;;;;;;;;;7.00;7.00;;;;;29.45;32.05;101532.78;5062661;27;45415;-83
2022/07/14 01:00:08;;;;;;;;;9.00;7.33;;;;;29.33;32.31;101522.28;5074327;27;45252;-83
2022/07/14 01:02:33;;;;;;;;;8.00;7.00;;;;;29.35;32.18;101532.06;5077279;27;46654;-83
2022/07/14 01:04:59;;;;;;;;;5.67;5.33;;;;;29.25;32.02;101521.25;5072437;27;45365;-83
2022/07/14 01:07:24;;;;;;;;;9.00;8.00;;;;;29.18;31.97;101520.22;5076900;27;46051;-83
2022/07/14 01:09:49;;;;;;;;;6.67;6.00;;;;;29.25;32.41;101539.63;5070379;27;45543;-84
2022/07/14 01:12:15;;;;;;;;;10.67;8.67;;;;;29.13;32.53;101530.88;5077470;27;46357;-83
2022/07/14 01:14:41;;;;;;;;;7.00;7.00;;;;;29.16;32.47;101535.16;5078552;27;45533;-75
2022/07/14 01:17:07;;;;;;;;;5.67;5.67;;;;;29.12;32.29;101547.50;5078924;27;45360;-75
2022/07/14 01:19:33;;;;;;;;;6.00;5.00;;;;;29.08;32.27;101557.09;5076599;27;45450;-75
2022/07/14 01:21:59;;;;;;;;;7.67;7.67;;;;;29.04;32.36;101564.78;5078389;27;47188;-75
2022/07/14 01:24:25;;;;;;;;;7.67;6.00;;;;;29.00;32.92;101561.50;5077581;27;45402;-76
2022/07/14 01:26:52;;;;;;;;;5.33;5.00;;;;;28.97;32.64;101572.84;5077076;28;45490;-75
2022/07/14 01:29:18;;;;;;;;;6.00;5.00;;;;;28.94;32.57;101564.06;5079403;27;45505;-75
2022/07/14 01:31:43;;;;;;;;;4.33;4.33;;;;;28.91;32.57;101567.16;5077336;27;46050;-75
2022/07/14 01:34:09;;;;;;;;;5.67;5.67;;;;;28.83;32.53;101563.34;5062809;27;45428;-75
2022/07/14 01:36:35;;;;;;;;;4.33;4.33;;;;;28.77;32.53;101558.53;5077485;27;45418;-75
2022/07/14 01:39:01;;;;;;;;;5.00;5.00;;;;;28.81;32.89;101570.03;5078247;27;45651;-75
2022/07/14 01:41:27;;;;;;;;;8.67;8.67;;;;;28.76;32.95;101565.06;5078436;27;47337;-75
2022/07/14 01:43:53;;;;;;;;;10.33;8.67;;;;;28.74;33.08;101556.13;5077801;27;45619;-75
2022/07/14 01:46:18;;;;;;;;;12.33;11.00;;;;;28.75;33.19;101559.72;5075039;27;45611;-75
2022/07/14 01:48:44;;;;;;;;;19.00;18.33;;;;;28.73;32.68;101557.16;5078278;27;45480;-75
2022/07/14 01:51:09;;;;;;;;;12.00;11.33;;;;;28.62;33.31;101547.34;5075939;27;46917;-77
2022/07/14 01:53:34;;;;;;;;;16.33;14.67;;;;;28.66;33.13;101556.13;5070657;27;45696;-75
2022/07/14 01:56:00;;;;;;;;;10.67;10.67;;;;;28.67;33.27;101546.84;5077095;27;45327;-75
2022/07/14 01:58:26;;;;;;;;;10.67;9.00;;;;;28.69;33.42;101549.44;5092914;27;45386;-75
2022/07/14 02:03:35;;;;;;;;;7.33;7.33;;;;;28.51;33.53;101524.84;5077479;27;46506;-75
2022/07/14 02:06:01;;;;;;;;;7.00;6.00;;;;;28.48;33.70;101531.50;5076659;27;46897;-75
2022/07/14 02:08:27;;;;;;;;;2.00;2.00;;;;;28.50;34.16;101536.84;5077855;27;45343;-75
2022/07/14 02:13:36;;;;;;;;;5.67;4.67;;;;;28.38;34.43;101517.06;5075919;27;45439;-75
2022/07/14 02:16:02;;;;;;;;;5.00;5.00;;;;;28.52;34.15;101534.81;5077279;27;45177;-84
2022/07/14 02:18:28;;;;;;;;;1.67;0.67;;;;;28.48;34.19;101528.78;5071511;27;45382;-83
2022/07/14 02:20:54;;;;;;;;;4.67;4.67;;;;;28.36;34.47;101517.22;5067193;27;46390;-83
2022/07/14 02:23:20;;;;;;;;;4.00;4.00;;;;;28.42;34.47;101529.38;5068729;27;45494;-83
2022/07/14 02:25:45;;;;;;;;;3.67;3.67;;;;;28.29;35.02;101507.06;5108040;27;45624;-83
2022/07/14 02:28:11;;;;;;;;;5.00;5.00;;;;;28.34;35.27;101521.16;5078189;27;45396;-83
2022/07/14 02:30:36;;;;;;;;;6.67;3.67;;;;;28.22;34.71;101506.00;5076753;27;46120;-83
2022/07/14 02:33:01;;;;;;;;;5.00;5.00;;;;;28.24;35.45;101520.38;5076006;27;45498;-84
2022/07/14 02:35:27;;;;;;;;;5.00;5.00;;;;;28.19;35.09;101519.03;5076912;27;45509;-83
2022/07/14 02:37:52;;;;;;;;;5.33;5.33;;;;;28.15;35.61;101514.03;5077610;27;45408;-84
2022/07/14 02:40:18;;;;;;;;;9.00;6.00;;;;;28.16;35.50;101523.97;5074136;27;45493;-84
2022/07/14 02:42:43;;;;;;;;;5.00;5.00;;;;;28.14;35.84;101523.25;5072703;27;45433;-83
2022/07/14 02:45:09;;;;;;;;;5.33;5.33;;;;;27.99;36.00;101506.56;5075323;27;45454;-84
2022/07/14 02:47:34;;;;;;;;;5.00;5.00;;;;;27.97;35.83;101509.47;5064520;27;45353;-84
2022/07/14 02:50:00;;;;;;;;;4.00;4.00;;;;;28.05;36.05;101516.00;5076393;27;45935;-83
2022/07/14 02:52:25;;;;;;;;;5.00;5.00;;;;;27.97;35.90;101500.38;5071833;27;45529;-83
2022/07/14 02:54:51;;;;;;;;;4.00;4.00;;;;;27.97;36.17;101508.59;5078390;27;45494;-83
2022/07/14 02:57:16;;;;;;;;;4.00;4.00;;;;;27.87;36.29;101497.78;5077522;27;45454;-83
2022/07/14 02:59:42;;;;;;;;;4.67;4.67;;;;;27.94;36.49;101515.28;5076549;27;46371;-83
2022/07/14 03:02:09;;;;;;;;;4.33;4.00;;;;;27.72;36.45;101489.25;5073730;27;45385;-83
2022/07/14 03:04:35;;;;;;;;;7.67;5.00;;;;;27.80;36.40;101504.88;5075465;27;45519;-84
2022/07/14 03:07:00;;;;;;;;;4.33;4.33;;;;;27.83;36.77;101510.06;5075749;27;45519;-83
2022/07/14 03:09:26;;;;;;;;;4.00;4.00;;;;;27.77;36.73;101502.47;5076173;27;45911;-84
2022/07/14 03:11:52;;;;;;;;;6.00;4.00;;;;;27.70;37.20;101498.66;5078205;27;45386;-83
2022/07/14 03:14:18;;;;;;;;;5.00;5.00;;;;;27.69;37.57;101500.53;5076283;27;45485;-83
2022/07/14 03:16:43;;;;;;;;;5.33;4.33;;;;;27.71;37.55;101500.38;5064689;27;45429;-83
2022/07/14 03:19:08;;;;;;;;;5.67;5.00;;;;;27.68;37.60;101504.28;5076136;27;46469;-83
2022/07/14 03:21:34;;;;;;;;;4.67;4.33;;;;;27.69;37.24;101514.22;5077671;27;45501;-84
2022/07/14 03:23:59;;;;;;;;;7.33;4.33;;;;;27.65;37.56;101506.47;5076555;27;47192;-83
2022/07/14 03:26:24;;;;;;;;;5.00;5.00;;;;;27.63;37.94;101501.19;5077242;27;45391;-83
2022/07/14 03:28:50;;;;;;;;;4.33;4.33;;;;;27.63;38.12;101503.91;5075088;27;45380;-83
2022/07/14 03:31:15;;;;;;;;;4.67;4.67;;;;;27.58;38.32;101501.66;5075820;27;45255;-83
2022/07/14 03:33:40;;;;;;;;;5.00;5.00;;;;;27.44;38.19;101479.44;5077961;27;45383;-83
2022/07/14 03:36:06;;;;;;;;;6.00;5.33;;;;;27.50;38.45;101493.38;5077533;28;45588;-84
2022/07/14 03:38:31;;;;;;;;;6.67;6.67;;;;;27.50;38.22;101501.59;5077751;27;46019;-84
2022/07/14 03:40:57;;;;;;;;;7.00;7.00;;;;;27.44;38.17;101506.84;5069733;27;45516;-84
2022/07/14 03:43:22;;;;;;;;;4.67;4.67;;;;;27.44;37.97;101506.84;5066023;28;45322;-83
2022/07/14 03:45:48;;;;;;;;;17.33;16.67;;;;;27.41;38.33;101510.75;5076234;27;45467;-83
2022/07/14 03:48:14;;;;;;;;;22.67;19.67;;;;;27.38;38.61;101508.34;5074645;28;48265;-84
2022/07/14 03:50:40;;;;;;;;;11.00;9.67;;;;;27.32;38.38;101514.44;5077202;28;45279;-83
2022/07/14 03:53:06;;;;;;;;;13.00;10.67;;;;;27.22;38.79;101500.00;5076399;27;45401;-83
2022/07/14 03:55:31;;;;;;;;;9.00;9.00;;;;;27.07;39.25;101484.09;5058734;28;45526;-83
2022/07/14 03:57:59;;;;;;;;;12.00;9.00;;;;;27.19;38.83;101514.81;5076914;27;45409;-83
2022/07/14 04:00:25;;;;;;;;;7.67;7.00;;;;;27.05;39.16;101486.13;5076841;27;45393;-83
2022/07/14 04:02:50;;;;;;;;;9.33;8.00;;;;;27.11;39.22;101504.66;5074440;27;45471;-83
2022/07/14 04:05:15;;;;;;;;;7.67;6.00;;;;;26.96;39.64;101478.84;5074207;27;45472;-83
2022/07/14 04:07:41;;;;;;;;;5.67;5.67;;;;;27.02;39.64;101489.19;5071224;27;45507;-84
2022/07/14 04:10:06;;;;;;;;;7.33;6.00;;;;;26.97;39.68;101486.03;5074085;27;45416;-85
2022/07/14 04:12:31;;;;;;;;;6.67;6.00;;;;;27.04;39.72;101505.44;5073115;27;45418;-85
2022/07/14 04:14:57;;;;;;;;;7.67;6.00;;;;;26.97;39.97;101496.13;5075478;27;45483;-76
2022/07/14 04:17:22;;;;;;;;;8.33;5.67;;;;;26.97;39.54;101504.34;5075694;27;45373;-76
2022/07/14 04:19:47;;;;;;;;;9.00;7.00;;;;;26.95;40.01;101499.88;5074702;27;45521;-76
2022/07/14 04:22:13;;;;;;;;;5.67;4.67;;;;;26.94;39.83;101509.09;5075446;27;45609;-76
2022/07/14 04:24:38;;;;;;;;;5.00;5.00;;;;;26.88;40.52;101501.53;5075095;27;45458;-76
2022/07/14 04:27:04;;;;;;;;;5.33;5.00;;;;;26.86;40.32;101497.22;5074647;27;46973;-76
2022/07/14 04:29:30;;;;;;;;;5.67;5.67;;;;;26.86;40.61;101506.28;5075085;27;45512;-76
2022/07/14 04:31:55;;;;;;;;;5.33;5.33;;;;;26.86;40.50;101509.03;5074144;27;45494;-76
2022/07/14 04:34:20;;;;;;;;;5.00;5.00;;;;;26.86;40.61;101519.97;5075413;27;46733;-76
2022/07/14 04:36:46;;;;;;;;;4.33;4.33;;;;;26.86;40.38;101519.97;5075657;27;46619;-76
2022/07/14 04:39:11;;;;;;;;;4.67;4.00;;;;;26.85;40.62;101520.13;5073528;27;46125;-76
2022/07/14 04:41:37;;;;;;;;;6.33;5.00;;;;;26.82;41.08;101513.06;5075594;27;45277;-76
2022/07/14 04:44:02;;;;;;;;;7.67;6.33;;;;;26.77;41.18;101518.16;5075425;27;45323;-76
2022/07/14 04:46:28;;;;;;;;;5.00;5.00;;;;;26.79;41.22;101528.97;5074654;27;46064;-76
2022/07/14 04:54:21;;;;;;;;;6.33;6.33;;;;;26.69;41.19;101523.53;5062029;28;45533;-76
2022/07/14 04:56:46;;;;;;;;;5.00;5.00;;;;;26.60;41.05;101508.03;5070373;27;45868;-76
2022/07/14 04:59:12;;;;;;;;;5.33;4.00;;;;;26.63;41.86;101516.81;5074791;27;45509;-76
2022/07/14 05:01:37;;;;;;;;;7.33;6.00;;;;;26.52;41.43;101497.84;5075680;27;45489;-76
2022/07/14 05:04:03;;;;;;;;;8.00;6.33;;;;;26.55;41.42;101514.00;5074236;27;45573;-76
2022/07/14 05:06:28;;;;;;;;;6.33;5.67;;;;;26.60;41.75;101525.31;5075671;27;46213;-76
2022/07/14 05:08:54;;;;;;;;;7.67;6.00;;;;;26.61;41.59;101527.03;5066634;27;45535;-76
2022/07/14 05:11:19;;;;;;;;;6.33;6.33;;;;;26.62;42.03;101534.25;5074546;27;45348;-76
2022/07/14 05:13:44;;;;;;;;;6.33;5.33;;;;;26.58;42.32;101521.03;5075550;27;45350;-76
2022/07/14 05:16:10;;;;;;;;;7.67;5.67;;;;;26.59;41.77;101528.19;5074254;27;46287;-76
2022/07/14 05:18:35;;;;;;;;;6.00;6.00;;;;;26.53;41.91;101518.72;5075250;27;45405;-76
2022/07/14 05:21:00;;;;;;;;;4.67;4.67;;;;;26.59;41.95;101522.72;5074692;27;45425;-76
2022/07/14 05:23:26;;;;;;;;;6.00;6.00;;;;;26.58;41.93;101518.28;5067270;27;45351;-76
2022/07/14 05:25:51;;;;;;;;;6.00;6.00;;;;;26.52;42.27;101512.34;5071872;27;46167;-76
2022/07/14 05:28:16;;;;;;;;;7.67;6.00;;;;;26.55;41.82;101514.00;5042570;27;45614;-76
2022/07/14 05:30:42;;;;;;;;;7.33;6.00;;;;;26.59;42.12;101525.47;5064323;27;45367;-76
2022/07/14 05:33:08;;;;;;;;;7.33;6.00;;;;;26.60;42.50;101524.44;5075160;27;45620;-76
2022/07/14 05:35:33;;;;;;;;;8.00;7.00;;;;;26.58;42.03;101530.09;5075284;27;45459;-76
2022/07/14 05:37:59;;;;;;;;;5.00;5.00;;;;;26.64;42.01;101539.53;5069458;27;45531;-76
2022/07/14 05:40:24;;;;;;;;;9.33;6.67;;;;;26.60;42.31;101539.00;5065448;27;45967;-77
2022/07/14 05:42:50;;;;;;;;;8.67;6.33;;;;;26.63;41.85;101540.56;5066724;28;45512;-76
2022/07/14 05:45:15;;;;;;;;;5.00;5.00;;;;;26.62;41.88;101542.44;5074328;27;46278;-77
2022/07/14 05:47:42;;;;;;;;;7.00;5.67;;;;;26.47;42.64;101511.97;5071900;27;45531;-76
2022/07/14 05:50:08;;;;;;;;;4.33;4.00;;;;;26.56;42.56;101529.38;5065574;27;45574;-76
2022/07/14 05:52:34;;;;;;;;;8.00;5.00;;;;;26.68;42.29;101546.44;5071650;27;47321;-76
2022/07/14 05:55:00;;;;;;;;;6.67;6.67;;;;;26.59;42.49;101528.19;5076675;27;46198;-76
2022/07/14 05:57:26;;;;;;;;;9.33;8.00;;;;;26.72;41.98;101535.03;5073838;27;45954;-77
2022/07/14 05:59:51;;;;;;;;;6.00;6.00;;;;;26.80;41.96;101558.03;5072980;27;45417;-77
2022/07/14 06:02:17;;;;;;;;;9.00;6.67;;;;;26.84;41.89;101553.97;5075431;27;45531;-77
2022/07/14 06:04:42;;;;;;;;;7.00;6.00;;;;;26.82;42.40;101545.91;5076072;27;45548;-76
2022/07/14 06:07:09;;;;;;;;;7.00;6.00;;;;;26.84;41.66;101541.16;5076311;27;45458;-77
2022/07/14 06:09:36;;;;;;;;;7.67;6.00;;;;;26.90;41.67;101546.00;5071856;27;45343;-78
2022/07/14 06:12:03;;;;;;;;;7.00;7.00;;;;;26.95;42.11;101537.34;5077707;27;45454;-75
2022/07/14 06:14:28;;;;;;;;;8.00;6.00;;;;;26.91;41.83;101533.19;5077769;27;46153;-75
2022/07/14 06:16:54;;;;;;;;;6.33;6.33;;;;;27.03;41.83;101542.88;5072988;27;48432;-75
2022/07/14 06:19:19;;;;;;;;;8.33;8.00;;;;;26.98;41.81;101536.16;5075659;27;45454;-75
2022/07/14 06:21:44;;;;;;;;;9.67;9.00;;;;;27.10;41.66;101546.72;5077329;27;45470;-75
2022/07/14 06:24:12;;;;;;;;;7.33;7.00;;;;;27.14;41.87;101550.00;5065339;27;46392;-75
2022/07/14 06:26:37;;;;;;;;;8.00;8.00;;;;;27.12;41.51;101539.22;5072084;27;45510;-75
2022/07/14 06:29:03;;;;;;;;;7.00;7.00;;;;;27.24;41.93;101547.22;5041450;27;48560;-75
2022/07/14 06:31:29;;;;;;;;;8.00;8.00;;;;;27.30;41.97;101549.31;5099618;27;45295;-75
2022/07/14 06:33:54;;;;;;;;;6.33;6.33;;;;;27.25;41.48;101530.63;5066241;27;45512;-75
2022/07/14 06:36:20;;;;;;;;;8.67;7.00;;;;;27.34;41.09;101548.00;5076605;27;45375;-75
2022/07/14 06:38:45;;;;;;;;;7.33;7.33;;;;;27.30;41.54;101550.22;5076720;27;45414;-75
2022/07/14 06:41:10;;;;;;;;;5.00;4.67;;;;;27.31;41.95;101551.06;5077707;27;45344;-75
2022/07/14 06:43:36;;;;;;;;;6.33;6.33;;;;;27.28;41.19;101552.25;5073606;27;45381;-75
2022/07/14 06:46:01;;;;;;;;;9.00;7.33;;;;;27.12;41.59;101522.78;5074970;27;45466;-75
2022/07/14 06:48:27;;;;;;;;;10.33;6.33;;;;;27.32;41.65;101556.38;5076271;27;45388;-75
2022/07/14 06:50:52;;;;;;;;;7.00;7.00;;;;;27.38;41.51;101549.41;5074036;27;45606;-75
2022/07/14 06:53:18;;;;;;;;;5.67;5.67;;;;;27.31;41.28;101516.31;5075294;27;46360;-75
2022/07/14 06:55:43;;;;;;;;;7.67;7.67;;;;;27.64;40.94;101556.81;5078475;28;45469;-75
2022/07/14 06:58:09;;;;;;;;;4.00;4.00;;;;;27.74;40.69;101554.84;5077233;27;45773;-75
2022/07/14 07:00:34;;;;;;;;;8.33;8.33;;;;;27.76;40.79;101553.66;5070751;27;45473;-75
2022/07/14 07:03:00;;;;;;;;;8.33;7.00;;;;;27.75;40.81;101542.88;5075386;27;47264;-75
2022/07/14 07:08:09;;;;;;;;;7.00;7.00;;;;;27.76;41.07;101531.72;5073128;27;47009;-75
2022/07/14 07:10:40;;;;;;;;;8.33;7.67;;;;;27.87;41.04;101554.47;5078747;27;45375;-75
2022/07/14 07:13:07;;;;;;;;;10.67;9.00;;;;;27.95;40.56;101551.75;5076196;27;46120;-75
2022/07/14 07:15:32;;;;;;;;;7.33;7.33;;;;;27.97;40.64;101553.31;5072679;27;45554;-75
2022/07/14 07:17:59;;;;;;;;;9.00;9.00;;;;;27.95;40.20;101543.53;5074336;27;45408;-75
2022/07/14 07:20:24;;;;;;;;;7.67;7.67;;;;;28.07;40.54;101538.63;5076194;27;45445;-75
2022/07/14 07:22:49;;;;;;;;;6.00;6.00;;;;;28.10;40.04;101536.44;5072394;27;46974;-75
2022/07/14 07:25:15;;;;;;;;;6.67;6.67;;;;;28.34;39.71;101549.41;5062819;27;45458;-76
2022/07/14 07:27:41;;;;;;;;;7.00;6.67;;;;;28.42;39.41;101524.78;5075309;27;45454;-75
2022/07/14 07:30:08;;;;;;;;;8.33;8.33;;;;;28.71;38.70;101544.63;5074819;27;45390;-78
2022/07/14 07:32:33;;;;;;;;;8.00;8.00;;;;;28.86;39.04;101542.94;5072247;27;46010;-84
2022/07/14 07:34:59;;;;;;;;;7.67;7.67;;;;;28.97;38.24;101550.03;5072537;27;45442;-75
2022/07/14 07:37:24;;;;;;;;;8.00;6.00;;;;;29.03;38.17;101541.97;5074931;27;45546;-76
2022/07/14 07:39:50;;;;;;;;;7.33;7.33;;;;;29.13;38.21;101543.75;5076432;27;45368;-76
2022/07/14 07:42:15;;;;;;;;;6.33;6.00;;;;;29.17;37.60;101543.22;5076005;27;46529;-73
2022/07/14 07:44:40;;;;;;;;;7.67;6.67;;;;;29.14;37.75;101549.03;5068778;27;45552;-75
2022/07/14 07:47:07;;;;;;;;;7.00;7.00;;;;;29.15;38.25;101548.03;5073673;27;45374;-74
2022/07/14 07:49:32;;;;;;;;;9.00;7.67;;;;;29.13;37.86;101546.50;5073524;27;45405;-73
2022/07/14 07:51:59;;;;;;;;;8.67;7.33;;;;;29.10;38.47;101539.41;5075376;27;46129;-73
2022/07/14 07:54:27;;;;;;;;;7.00;7.00;;;;;29.09;38.10;101534.97;5071346;28;45581;-75
2022/07/14 07:56:53;;;;;;;;;6.00;6.00;;;;;29.09;38.63;101542.34;5065934;27;46201;-75
2022/07/14 07:59:18;;;;;;;;;9.33;8.00;;;;;29.11;38.26;101538.41;5075087;27;45616;-72
2022/07/14 08:01:44;;;;;;;;;7.00;7.00;;;;;29.08;38.40;101516.78;5073976;27;46336;-75
2022/07/14 08:04:09;;;;;;;;;10.67;8.00;;;;;29.35;37.80;101537.56;5074243;27;45719;-71
2022/07/14 08:06:35;;;;;;;;;6.00;6.00;;;;;29.42;37.56;101540.50;5073873;27;45616;-72
2022/07/14 08:09:02;;;;;;;;;6.00;6.00;;;;;29.50;37.02;101537.75;5072608;27;45735;-73
2022/07/14 08:11:28;;;;;;;;;8.00;8.00;;;;;29.59;37.50;101530.34;5075180;27;45624;-72
2022/07/14 08:13:53;;;;;;;;;8.33;8.33;;;;;29.75;37.61;101524.88;5073012;28;45498;-72
2022/07/14 08:16:19;;;;;;;;;9.00;6.33;;;;;29.89;36.84;101523.28;5070569;27;45989;-73
2022/07/14 08:18:44;;;;;;;;;7.67;7.67;;;;;29.94;36.76;101528.28;5067744;27;45497;-73
2022/07/14 08:21:10;;;;;;;;;6.67;6.67;;;;;29.91;36.64;101523.97;5071215;27;47133;-74
2022/07/14 08:23:35;;;;;;;;;8.67;8.67;;;;;29.82;37.22;101523.13;5067439;27;45967;-75
2022/07/14 08:26:00;;;;;;;;;8.67;6.33;;;;;29.81;36.98;101526.06;5073099;28;45415;-75
2022/07/14 08:28:25;;;;;;;;;5.67;5.67;;;;;29.71;36.83;101520.75;5069825;28;45482;-74
2022/07/14 08:30:51;;;;;;;;;5.67;5.67;;;;;29.79;36.67;101523.50;5086203;27;46264;-74
2022/07/14 08:33:16;;;;;;;;;6.00;6.00;;;;;29.77;36.57;101517.31;5068704;27;45436;-74
2022/07/14 08:35:42;;;;;;;;;7.33;7.33;;;;;29.90;36.69;101529.66;5075287;27;45993;-74
2022/07/14 08:38:08;;;;;;;;;7.33;6.67;;;;;29.95;36.36;101525.34;5074245;27;45406;-74
2022/07/14 08:40:37;;;;;;;;;5.00;5.00;;;;;29.97;36.70;101512.28;5074566;27;46076;-75
2022/07/14 08:43:02;;;;;;;;;6.67;6.67;;;;;30.13;35.53;101519.63;5067789;27;45560;-74
2022/07/14 08:45:32;;;;;;;;;5.67;5.67;;;;;30.17;35.63;101509.13;5075391;27;45461;-75
2022/07/14 08:47:57;;;;;;;;;6.67;6.00;;;;;30.70;35.60;101515.81;5067070;27;45533;-76
2022/07/14 08:50:25;;;;;;;;;5.67;5.67;;;;;31.49;33.85;101515.63;5072111;27;45491;-73
2022/07/14 08:52:50;;;;;;;;;6.67;6.00;;;;;32.35;32.61;101519.72;5076060;27;45505;-76
2022/07/14 08:55:19;;;;;;;;;7.67;7.67;;;;;32.98;31.76;101514.53;5074907;27;45492;-76
2022/07/14 08:57:46;;;;;;;;;6.00;6.00;;;;;34.66;28.97;101518.41;5072892;27;45391;-76
2022/07/14 09:00:14;;;;;;;;;6.33;6.33;;;;;35.51;27.97;101517.94;5073426;27;45570;-76
2022/07/14 09:02:47;;;;;;;;;7.00;6.67;;;;;38.75;24.81;101520.78;5078544;27;45453;-77
2022/07/14 09:05:13;;;;;;;;;5.33;5.33;;;;;40.38;22.11;101506.41;5075856;27;45684;-71
2022/07/14 09:07:38;;;;;;;;;9.33;8.00;;;;;41.89;20.85;101532.06;5077525;27;45291;-71
2022/07/14 09:10:07;;;;;;;;;7.67;6.00;;;;;43.78;19.33;101524.97;5072317;27;46307;-73
2022/07/14 09:12:33;;;;;;;;;5.00;5.00;;;;;44.85;17.33;101522.66;5075973;27;46031;-70
2022/07/14 09:18:01;;;;;;;;;5.00;5.00;;;;;48.38;15.08;101513.47;5069327;28;45312;-71
2022/07/14 09:20:32;;;;;;;;;4.00;4.00;;;;;48.65;13.98;101524.13;5074924;27;45816;-72
2022/07/14 09:23:00;;;;;;;;;4.00;4.00;;;;;50.01;12.92;101529.75;5062588;28;45399;-70
2022/07/14 09:25:28;;;;;;;;;20.67;20.00;;;;;51.14;12.61;101526.38;5072956;27;45509;-70
2022/07/14 09:27:54;;;;;;;;;5.00;5.00;;;;;51.80;12.05;101536.00;5069906;28;45520;-70
2022/07/14 09:30:22;;;;;;;;;7.00;5.00;;;;;52.50;11.28;101531.38;5078746;27;46208;-70
2022/07/14 09:32:51;;;;;;;;;5.00;5.00;;;;;53.21;10.66;101532.25;5079118;28;45359;-68
2022/07/14 09:35:22;;;;;;;;;6.67;3.00;;;;;53.72;10.38;101536.13;5078988;27;45410;-68
2022/07/14 09:37:49;;;;;;;;;4.33;4.33;;;;;53.29;10.61;101528.53;5075636;27;45470;-70
2022/07/14 09:40:29;;;;;;;;;4.33;4.33;;;;;53.40;10.58;101534.72;5076376;27;47674;-70
2022/07/14 09:43:05;;;;;;;;;5.00;5.00;;;;;53.95;10.24;101534.72;5078770;27;46256;-70
2022/07/14 09:45:32;;;;;;;;;4.00;4.00;;;;;54.52;9.46;101539.09;5078573;27;45387;-72
2022/07/14 09:48:11;;;;;;;;;3.33;3.33;;;;;54.84;9.52;101535.81;5076764;27;45635;-72
2022/07/14 09:50:36;;;;;;;;;3.00;3.00;;;;;55.01;8.64;101538.50;5075947;28;46205;-69
2022/07/14 09:53:19;;;;;;;;;5.00;3.00;;;;;55.69;8.91;101534.47;5073907;27;46492;-75
2022/07/14 09:55:49;;;;;;;;;3.00;3.00;;;;;56.10;8.28;101538.28;5085920;27;45494;-71
2022/07/14 09:58:15;;;;;;;;;2.00;2.00;;;;;55.96;7.82;101536.59;5093567;27;45499;-71
2022/07/14 10:00:43;;;;;;;;;3.00;3.00;;;;;55.81;7.82;101541.00;5076485;27;45497;-70
2022/07/14 10:03:08;;;;;;;;;2.67;2.67;;;;;55.53;8.69;101540.84;5078473;27;45392;-71
2022/07/14 10:05:35;;;;;;;;;4.67;3.33;;;;;55.68;8.68;101545.06;5061249;27;45594;-70
2022/07/14 10:08:07;;;;;;;;;4.00;4.00;;;;;55.86;8.87;101537.09;5071830;27;45482;-70
2022/07/14 10:10:35;;;;;;;;;3.33;3.33;;;;;55.69;8.69;101537.34;5070505;27;45449;-70
2022/07/14 10:13:03;;;;;;;;;3.33;3.33;;;;;55.89;7.83;101544.09;5088947;27;45481;-70
2022/07/14 10:15:30;;;;;;;;;3.00;3.00;;;;;55.59;8.13;101544.28;5074674;27;45476;-70
2022/07/14 10:17:56;;;;;;;;;4.00;3.67;;;;;55.56;8.86;101539.28;5077927;27;45506;-70
2022/07/14 10:20:22;;;;;;;;;6.00;4.00;;;;;55.36;8.80;101538.22;5066511;28;45437;-71
2022/07/14 10:22:50;;;;;;;;;3.67;1.33;;;;;55.08;8.87;101540.84;5076771;27;45517;-71
2022/07/14 10:25:16;;;;;;;;;3.00;3.00;;;;;54.87;8.74;101549.41;5074340;27;45856;-71
2022/07/14 10:27:42;;;;;;;;;2.00;2.00;;;;;54.43;8.63;101546.88;5070841;27;47279;-71
2022/07/14 10:30:09;;;;;;;;;2.00;2.00;;;;;53.99;9.45;101532.81;5077405;27;46732;-71
2022/07/14 10:32:52;;;;;;;;;3.00;2.33;;;;;53.62;9.35;101536.50;5067762;27;45656;-71
2022/07/14 10:35:29;;;;;;;;;3.00;3.00;;;;;53.35;9.53;101547.13;5065887;27;46348;-72
2022/07/14 10:38:19;;;;;;;;;5.00;2.67;;;;;52.84;9.85;101526.88;5071232;27;46428;-72
2022/07/14 10:40:52;;;;;;;;;3.33;2.00;;;;;52.11;10.37;101501.81;5075607;27;45611;-72
2022/07/14 10:43:24;;;;;;;;;1.00;1.00;;;;;51.45;12.70;101500.88;5072664;28;45432;-72
2022/07/14 10:45:52;;;;;;;;;2.67;2.67;;;;;50.29;13.45;101506.19;5072142;27;47707;-72
2022/07/14 10:48:35;;;;;;;;;4.00;4.00;;;;;49.19;14.11;101502.88;5074314;27;45579;-72
2022/07/14 10:51:25;;;;;;;;;5.00;3.67;;;;;48.22;13.40;101489.38;5057854;27;46351;-72
2022/07/14 10:54:12;;;;;;;;;3.00;3.00;;;;;47.04;15.97;101476.41;5064893;27;46045;-73
2022/07/14 10:56:43;;;;;;;;;3.00;3.00;;;;;46.59;16.13;101490.53;5090545;27;45511;-73
2022/07/14 10:59:27;;;;;;;;;3.67;3.67;;;;;45.96;16.14;101496.69;5076065;27;45480;-72
2022/07/14 11:02:11;;;;;;;;;5.00;4.00;;;;;45.48;17.20;101487.81;5069518;28;46053;-72
2022/07/14 11:05:04;;;;;;;;;4.33;4.33;;;;;44.91;17.73;101483.28;5073915;28;45479;-73
2022/07/14 11:08:05;;;;;;;;;3.00;2.67;;;;;44.09;18.14;101475.44;5075493;28;45551;-71
2022/07/14 11:10:30;;;;;;;;;3.33;3.33;;;;;43.35;18.86;101485.59;5071694;27;45327;-72
2022/07/14 11:13:05;;;;;;;;;3.00;3.00;;;;;42.57;19.58;101480.34;5073058;27;45470;-71
2022/07/14 11:15:39;;;;;;;;;3.00;3.00;;;;;41.95;20.78;101492.69;5074146;27;45370;-72
2022/07/14 11:18:25;;;;;;;;;4.33;4.33;;;;;41.32;20.76;101491.13;5072980;27;45533;-72
2022/07/14 11:21:00;;;;;;;;;3.00;3.00;;;;;40.86;21.19;101493.09;5074114;27;45327;-72
2022/07/14 11:23:27;;;;;;;;;2.00;2.00;;;;;40.36;21.55;101486.25;5103839;27;47485;-71
2022/07/14 11:25:54;;;;;;;;;5.00;4.00;;;;;39.80;22.57;101473.78;5073015;27;45570;-72
2022/07/14 11:28:31;;;;;;;;;4.00;4.00;;;;;39.51;22.23;101489.59;5075523;27;45461;-72
2022/07/14 11:31:12;;;;;;;;;3.00;3.00;;;;;39.12;22.90;101486.34;5071529;27;45362;-74
2022/07/14 11:36:25;;;;;;;;;6.67;5.00;;;;;38.48;24.28;101486.84;5071914;27;45470;-75
2022/07/14 11:39:10;;;;;;;;;2.67;2.67;;;;;38.20;23.47;101484.59;5072345;27;45662;-75
2022/07/14 11:41:45;;;;;;;;;3.67;3.67;;;;;37.84;24.14;101477.06;5074046;27;45504;-75
2022/07/14 11:44:35;;;;;;;;;3.00;3.00;;;;;37.61;24.25;101495.28;5070184;27;46837;-74